Iron Lady — WTK5059 — position and weather

sailwx.info

Track history (hours):
 
Tides and Currents Weather Stations Pressure Air Temp Water Temp Dewpoint Dewpoint Depression Visibility Wind Speed Wind Dir Waves Ship Positions

Iron Lady

Owner: IRON LADY INC, SOUTH BEND, WA. More information available from US FCC via Universal Licensing System and Coast Guard Vessel Documentation Center.

Last reported at 2015-Aug-02 04:33 UTC. Time now 2015-Aug-02 10:19 UTC.
Position N 47°09' W 124°42'.

Type: Fishing. MMSI: 367037240.

Date/timePositionNaut miles runAvg speedWind from/ knotsBaromVisibWave heightAir tempDewpointWater temp
2015-Aug-02 04:33N 47°09' W 124°42'6 8.5
2015-Aug-02 03:53N 47°15' W 124°44'3 3.7
2015-Aug-02 03:09N 47°18' W 124°44'2 2.3
2015-Aug-02 02:16N 47°16' W 124°45'2 2.3
2015-Aug-02 01:25N 47°14' W 124°46'2 2.3
2015-Aug-02 00:26N 47°12' W 124°47'2 2.3
2015-Aug-01 23:25N 47°09' W 124°48'0 2.4
2015-Aug-01 23:17N 47°09' W 124°48'61 4.4
2015-Aug-01 09:24N 46°15' W 124°04'6 6.9
2015-Aug-01 08:33N 46°13' W 123°57'3 3.1
2015-Aug-01 07:33N 46°10' W 123°55'0 0.0
2015-Aug-01 06:33N 46°10' W 123°55'0 0.0
2015-Aug-01 05:34N 46°10' W 123°55'0 0.0
2015-Aug-01 04:33N 46°10' W 123°55'0 0.0
2015-Aug-01 03:34N 46°10' W 123°55'0 0.0
2015-Aug-01 02:34N 46°10' W 123°55'0 0.0
2015-Aug-01 01:34N 46°10' W 123°55'0 0.0
2015-Aug-01 00:33N 46°10' W 123°55'0 0.0
2015-Jul-31 23:33N 46°10' W 123°55'0 0.0
2015-Jul-31 22:33N 46°10' W 123°55'0 0.0
2015-Jul-31 21:33N 46°10' W 123°55'0 0.0
2015-Jul-31 20:34N 46°10' W 123°55'0 0.0
2015-Jul-31 19:33N 46°10' W 123°55'3 2.6
2015-Jul-31 18:33N 46°11' W 123°52'2 1.6
2015-Jul-31 17:33N 46°11' W 123°54'1 0.0
2015-Jul-29 17:33N 46°10' W 123°55'0 0.0
2015-Jul-29 16:34N 46°10' W 123°55'0 0.0
2015-Jul-29 15:30N 46°10' W 123°55'0 0.0
2015-Jul-29 14:33N 46°10' W 123°55'0 0.0
2015-Jul-29 13:33N 46°10' W 123°55'0 0.0
2015-Jul-29 12:33N 46°10' W 123°55'0 0.0
2015-Jul-29 11:33N 46°10' W 123°55'0 0.0
2015-Jul-29 10:33N 46°10' W 123°55'0 0.0
2015-Jul-29 09:33N 46°10' W 123°55'0 0.0
2015-Jul-29 08:33N 46°10' W 123°55'0 0.0
2015-Jul-29 07:33N 46°10' W 123°55'0 0.0
2015-Jul-29 06:33N 46°10' W 123°55'0 0.0
2015-Jul-29 05:33N 46°10' W 123°55'0 0.0
2015-Jul-29 04:33N 46°10' W 123°55'0 0.0
2015-Jul-29 03:33N 46°10' W 123°55'0 0.0
2015-Jul-29 02:33N 46°10' W 123°55'0 0.0
2015-Jul-29 01:33N 46°10' W 123°55'0 0.0
2015-Jul-29 00:33N 46°10' W 123°55'0 0.0
2015-Jul-28 23:33N 46°10' W 123°55'0 0.0
2015-Jul-28 22:34N 46°10' W 123°55'0 0.0
2015-Jul-28 21:33N 46°10' W 123°55'0 0.0
2015-Jul-28 20:33N 46°10' W 123°55'0 0.0
2015-Jul-28 19:33N 46°10' W 123°55'0 0.0
2015-Jul-28 18:34N 46°10' W 123°55'0 0.0
2015-Jul-28 17:33N 46°10' W 123°55'0 0.0
2015-Jul-28 16:33N 46°10' W 123°55'0 0.0
2015-Jul-28 15:33N 46°10' W 123°55'0 0.0
2015-Jul-28 14:33N 46°10' W 123°55'0 0.0
2015-Jul-28 13:33N 46°10' W 123°55'0 0.0
2015-Jul-28 12:33N 46°10' W 123°55'0 0.0
2015-Jul-28 11:33N 46°10' W 123°55'0 0.0
2015-Jul-28 10:33N 46°10' W 123°55'0 0.0
2015-Jul-28 09:33N 46°10' W 123°55'0 0.0
2015-Jul-28 08:34N 46°10' W 123°55'0 0.0
2015-Jul-28 07:33N 46°10' W 123°55'0 0.0
2015-Jul-28 06:33N 46°10' W 123°55'0 0.0
2015-Jul-28 05:33N 46°10' W 123°55'0 0.0
2015-Jul-28 04:33N 46°10' W 123°55'0 0.0
2015-Jul-28 03:34N 46°10' W 123°55'0 0.0
2015-Jul-28 02:33N 46°10' W 123°55'0 0.0
2015-Jul-28 01:33N 46°10' W 123°55'0 0.0
2015-Jul-28 00:33N 46°10' W 123°55'0 0.0
2015-Jul-27 23:33N 46°10' W 123°55'0 0.0
2015-Jul-27 22:33N 46°10' W 123°55'0 0.0
2015-Jul-27 21:33N 46°10' W 123°55'3 3.5
2015-Jul-27 20:34N 46°12' W 123°50'1 0.8
2015-Jul-27 19:32N 46°11' W 123°51'0 0.0
2015-Jul-27 18:33N 46°11' W 123°51'0 0.0
2015-Jul-27 17:33N 46°11' W 123°51'0 0.0
2015-Jul-27 16:33N 46°11' W 123°51'0 0.0
2015-Jul-27 15:34N 46°11' W 123°51'0 0.0
2015-Jul-27 14:33N 46°11' W 123°51'0 0.0
2015-Jul-27 13:33N 46°11' W 123°51'0 0.0
2015-Jul-27 12:33N 46°11' W 123°51'0 0.2
2015-Jul-27 11:33N 46°11' W 123°52'0 0.0
2015-Jul-27 10:32N 46°11' W 123°52'0 0.0
2015-Jul-27 09:31N 46°11' W 123°52'0 0.0
2015-Jul-27 08:33N 46°11' W 123°52'0 0.0
2015-Jul-27 07:33N 46°11' W 123°52'0 0.0
2015-Jul-27 06:33N 46°11' W 123°52'0 0.0
2015-Jul-27 05:33N 46°11' W 123°52'0 0.0
2015-Jul-27 04:33N 46°11' W 123°52'0 0.0
2015-Jul-27 03:33N 46°11' W 123°52'5 5.2
2015-Jul-27 02:34N 46°14' W 123°58'9 9.1
2015-Jul-27 01:33N 46°18' W 124°10'9 8.6
2015-Jul-27 00:33N 46°24' W 124°19'23 3.3
2015-Jul-26 17:32N 46°45' W 124°32'3 2.8
2015-Jul-26 16:33N 46°48' W 124°33'3 2.8
2015-Jul-26 15:33N 46°50' W 124°35'  
2015-Jul-23 23:04N 46°51' W 124°44'2 2.7
2015-Jul-23 22:26N 46°50' W 124°43'5 5.4
2015-Jul-23 21:30N 46°45' W 124°40'8 7.7
2015-Jul-23 20:30N 46°39' W 124°33'5 7.7
2015-Jul-23 19:48N 46°35' W 124°29'2 7.6
2015-Jul-23 19:33N 46°33' W 124°27'8 8.1
2015-Jul-23 18:33N 46°27' W 124°20'8 8.3
2015-Jul-23 17:32N 46°20' W 124°13'8 7.9
2015-Jul-23 16:33N 46°15' W 124°04'9 9.0
2015-Jul-23 15:30N 46°11' W 123°51'0 0.0
2015-Jul-23 14:34N 46°11' W 123°52'0 0.0
2015-Jul-23 13:33N 46°11' W 123°51'3 2.6
2015-Jul-23 12:33N 46°10' W 123°55'0 0.0
2015-Jul-23 11:33N 46°10' W 123°55'0 0.0
2015-Jul-23 10:33N 46°10' W 123°55'0 0.0
2015-Jul-23 09:33N 46°10' W 123°55'0 0.0
2015-Jul-23 08:33N 46°10' W 123°55'0 0.0
2015-Jul-23 07:33N 46°10' W 123°55'0 0.0
2015-Jul-23 06:33N 46°10' W 123°55'0 0.0
2015-Jul-23 05:33N 46°10' W 123°55'  
Track history (hours):
 
Tides and Currents Weather Stations Pressure Air Temp Water Temp Dewpoint Dewpoint Depression Visibility Wind Speed Wind Dir Waves Ship Positions

Iron Lady

Owner: IRON LADY INC, SOUTH BEND, WA. More information available from US FCC via Universal Licensing System and Coast Guard Vessel Documentation Center.

Last reported at 2015-Aug-02 04:33 UTC. Time now 2015-Aug-02 10:19 UTC.
Position N 47°09' W 124°42'.

Type: Fishing. MMSI: 367037240.

Date/timePositionNaut miles runAvg speedWind from/ knotsBaromVisibWave heightAir tempDewpointWater temp
2015-Aug-02 04:33N 47°09' W 124°42'6 8.5
2015-Aug-02 03:53N 47°15' W 124°44'3 3.7
2015-Aug-02 03:09N 47°18' W 124°44'2 2.3
2015-Aug-02 02:16N 47°16' W 124°45'2 2.3
2015-Aug-02 01:25N 47°14' W 124°46'2 2.3
2015-Aug-02 00:26N 47°12' W 124°47'2 2.3
2015-Aug-01 23:25N 47°09' W 124°48'0 2.4
2015-Aug-01 23:17N 47°09' W 124°48'61 4.4
2015-Aug-01 09:24N 46°15' W 124°04'6 6.9
2015-Aug-01 08:33N 46°13' W 123°57'3 3.1
2015-Aug-01 07:33N 46°10' W 123°55'0 0.0
2015-Aug-01 06:33N 46°10' W 123°55'0 0.0
2015-Aug-01 05:34N 46°10' W 123°55'0 0.0
2015-Aug-01 04:33N 46°10' W 123°55'0 0.0
2015-Aug-01 03:34N 46°10' W 123°55'0 0.0
2015-Aug-01 02:34N 46°10' W 123°55'0 0.0
2015-Aug-01 01:34N 46°10' W 123°55'0 0.0
2015-Aug-01 00:33N 46°10' W 123°55'0 0.0
2015-Jul-31 23:33N 46°10' W 123°55'0 0.0
2015-Jul-31 22:33N 46°10' W 123°55'0 0.0
2015-Jul-31 21:33N 46°10' W 123°55'0 0.0
2015-Jul-31 20:34N 46°10' W 123°55'0 0.0
2015-Jul-31 19:33N 46°10' W 123°55'3 2.6
2015-Jul-31 18:33N 46°11' W 123°52'2 1.6
2015-Jul-31 17:33N 46°11' W 123°54'1 0.0
2015-Jul-29 17:33N 46°10' W 123°55'0 0.0
2015-Jul-29 16:34N 46°10' W 123°55'0 0.0
2015-Jul-29 15:30N 46°10' W 123°55'0 0.0
2015-Jul-29 14:33N 46°10' W 123°55'0 0.0
2015-Jul-29 13:33N 46°10' W 123°55'0 0.0
2015-Jul-29 12:33N 46°10' W 123°55'0 0.0
2015-Jul-29 11:33N 46°10' W 123°55'0 0.0
2015-Jul-29 10:33N 46°10' W 123°55'0 0.0
2015-Jul-29 09:33N 46°10' W 123°55'0 0.0
2015-Jul-29 08:33N 46°10' W 123°55'0 0.0
2015-Jul-29 07:33N 46°10' W 123°55'0 0.0
2015-Jul-29 06:33N 46°10' W 123°55'0 0.0
2015-Jul-29 05:33N 46°10' W 123°55'0 0.0
2015-Jul-29 04:33N 46°10' W 123°55'0 0.0
2015-Jul-29 03:33N 46°10' W 123°55'0 0.0
2015-Jul-29 02:33N 46°10' W 123°55'0 0.0
2015-Jul-29 01:33N 46°10' W 123°55'0 0.0
2015-Jul-29 00:33N 46°10' W 123°55'0 0.0
2015-Jul-28 23:33N 46°10' W 123°55'0 0.0
2015-Jul-28 22:34N 46°10' W 123°55'0 0.0
2015-Jul-28 21:33N 46°10' W 123°55'0 0.0
2015-Jul-28 20:33N 46°10' W 123°55'0 0.0
2015-Jul-28 19:33N 46°10' W 123°55'0 0.0
2015-Jul-28 18:34N 46°10' W 123°55'0 0.0
2015-Jul-28 17:33N 46°10' W 123°55'0 0.0
2015-Jul-28 16:33N 46°10' W 123°55'0 0.0
2015-Jul-28 15:33N 46°10' W 123°55'0 0.0
2015-Jul-28 14:33N 46°10' W 123°55'0 0.0
2015-Jul-28 13:33N 46°10' W 123°55'0 0.0
2015-Jul-28 12:33N 46°10' W 123°55'0 0.0
2015-Jul-28 11:33N 46°10' W 123°55'0 0.0
2015-Jul-28 10:33N 46°10' W 123°55'0 0.0
2015-Jul-28 09:33N 46°10' W 123°55'0 0.0
2015-Jul-28 08:34N 46°10' W 123°55'0 0.0
2015-Jul-28 07:33N 46°10' W 123°55'0 0.0
2015-Jul-28 06:33N 46°10' W 123°55'0 0.0
2015-Jul-28 05:33N 46°10' W 123°55'0 0.0
2015-Jul-28 04:33N 46°10' W 123°55'0 0.0
2015-Jul-28 03:34N 46°10' W 123°55'0 0.0
2015-Jul-28 02:33N 46°10' W 123°55'0 0.0
2015-Jul-28 01:33N 46°10' W 123°55'0 0.0
2015-Jul-28 00:33N 46°10' W 123°55'0 0.0
2015-Jul-27 23:33N 46°10' W 123°55'0 0.0
2015-Jul-27 22:33N 46°10' W 123°55'0 0.0
2015-Jul-27 21:33N 46°10' W 123°55'3 3.5
2015-Jul-27 20:34N 46°12' W 123°50'1 0.8
2015-Jul-27 19:32N 46°11' W 123°51'0 0.0
2015-Jul-27 18:33N 46°11' W 123°51'0 0.0
2015-Jul-27 17:33N 46°11' W 123°51'0 0.0
2015-Jul-27 16:33N 46°11' W 123°51'0 0.0
2015-Jul-27 15:34N 46°11' W 123°51'0 0.0
2015-Jul-27 14:33N 46°11' W 123°51'0 0.0
2015-Jul-27 13:33N 46°11' W 123°51'0 0.0
2015-Jul-27 12:33N 46°11' W 123°51'0 0.2
2015-Jul-27 11:33N 46°11' W 123°52'0 0.0
2015-Jul-27 10:32N 46°11' W 123°52'0 0.0
2015-Jul-27 09:31N 46°11' W 123°52'0 0.0
2015-Jul-27 08:33N 46°11' W 123°52'0 0.0
2015-Jul-27 07:33N 46°11' W 123°52'0 0.0
2015-Jul-27 06:33N 46°11' W 123°52'0 0.0
2015-Jul-27 05:33N 46°11' W 123°52'0 0.0
2015-Jul-27 04:33N 46°11' W 123°52'0 0.0
2015-Jul-27 03:33N 46°11' W 123°52'5 5.2
2015-Jul-27 02:34N 46°14' W 123°58'9 9.1
2015-Jul-27 01:33N 46°18' W 124°10'9 8.6
2015-Jul-27 00:33N 46°24' W 124°19'23 3.3
2015-Jul-26 17:32N 46°45' W 124°32'3 2.8
2015-Jul-26 16:33N 46°48' W 124°33'3 2.8
2015-Jul-26 15:33N 46°50' W 124°35'  
2015-Jul-23 23:04N 46°51' W 124°44'2 2.7
2015-Jul-23 22:26N 46°50' W 124°43'5 5.4
2015-Jul-23 21:30N 46°45' W 124°40'8 7.7
2015-Jul-23 20:30N 46°39' W 124°33'5 7.7
2015-Jul-23 19:48N 46°35' W 124°29'2 7.6
2015-Jul-23 19:33N 46°33' W 124°27'8 8.1
2015-Jul-23 18:33N 46°27' W 124°20'8 8.3
2015-Jul-23 17:32N 46°20' W 124°13'8 7.9
2015-Jul-23 16:33N 46°15' W 124°04'9 9.0
2015-Jul-23 15:30N 46°11' W 123°51'0 0.0
2015-Jul-23 14:34N 46°11' W 123°52'0 0.0
2015-Jul-23 13:33N 46°11' W 123°51'3 2.6
2015-Jul-23 12:33N 46°10' W 123°55'0 0.0
2015-Jul-23 11:33N 46°10' W 123°55'0 0.0
2015-Jul-23 10:33N 46°10' W 123°55'0 0.0
2015-Jul-23 09:33N 46°10' W 123°55'0 0.0
2015-Jul-23 08:33N 46°10' W 123°55'0 0.0
2015-Jul-23 07:33N 46°10' W 123°55'0 0.0
2015-Jul-23 06:33N 46°10' W 123°55'0 0.0
2015-Jul-23 05:33N 46°10' W 123°55'  

Dump ship's entire track history